< < Back
Terminal Aerodrome Forecast


Current Version              Previous Versions:   1  2  3  4  5  6  7  8  9  

Terminal Aerodrome Forecast

597
FTUS42 KFFC 012327
TAFPDK
TAF
KPDK 012327Z 0200/0224 09003KT 6SM BR OVC007
     FM020200 00000KT 3SM -DZ OVC005
     FM020500 00000KT 4SM -RA OVC007
     FM020700 VRB03KT 1SM -DZ OVC004
     FM021500 28004KT 4SM -RA OVC007
     FM021900 31005KT P6SM VCSH BKN012
     FM022300 34003KT 6SM BR OVC009=



Latest METAR

194
SAUS70 KWBC 020300 RRD
MTRPDK
METAR KPDK 020253Z 15003KT 3SM BR OVC003 07/06 A3036 RMK AO2 SLP292
T00670061 50001


USA.gov is the U.S. government's official web portal to all federal, state and local government web resources and services.